sensor_id;sensor_type;location;lat;lon;timestamp;P1;durP1;ratioP1;P2;durP2;ratioP2
10418;SDS011;5256;48.728;9.140;2023-06-05T00:01:02;0.40;;;0.40;;
10418;SDS011;5256;48.728;9.140;2023-06-05T00:03:28;0.40;;;0.40;;
10418;SDS011;5256;48.728;9.140;2023-06-05T00:05:54;0.40;;;0.40;;
10418;SDS011;5256;48.728;9.140;2023-06-05T00:08:20;0.40;;;0.40;;
10418;SDS011;5256;48.728;9.140;2023-06-05T00:10:46;0.40;;;0.40;;
10418;SDS011;5256;48.728;9.140;2023-06-05T00:13:11;0.40;;;0.40;;
10418;SDS011;5256;48.728;9.140;2023-06-05T00:15:37;0.53;;;0.53;;
10418;SDS011;5256;48.728;9.140;2023-06-05T00:18:03;0.40;;;0.40;;
10418;SDS011;5256;48.728;9.140;2023-06-05T00:20:29;0.40;;;0.40;;
10418;SDS011;5256;48.728;9.140;2023-06-05T00:22:55;0.30;;;0.30;;
10418;SDS011;5256;48.728;9.140;2023-06-05T00:25:20;0.30;;;0.30;;
10418;SDS011;5256;48.728;9.140;2023-06-05T00:27:46;0.40;;;0.40;;
10418;SDS011;5256;48.728;9.140;2023-06-05T00:30:12;0.30;;;0.30;;
10418;SDS011;5256;48.728;9.140;2023-06-05T00:32:38;0.30;;;0.30;;
10418;SDS011;5256;48.728;9.140;2023-06-05T00:35:05;0.30;;;0.30;;
10418;SDS011;5256;48.728;9.140;2023-06-05T00:37:32;0.40;;;0.40;;
10418;SDS011;5256;48.728;9.140;2023-06-05T00:39:58;0.40;;;0.40;;
10418;SDS011;5256;48.728;9.140;2023-06-05T00:42:24;0.43;;;0.43;;
10418;SDS011;5256;48.728;9.140;2023-06-05T00:44:51;0.33;;;0.33;;
10418;SDS011;5256;48.728;9.140;2023-06-05T00:47:17;0.30;;;0.30;;
10418;SDS011;5256;48.728;9.140;2023-06-05T00:49:43;0.40;;;0.40;;
10418;SDS011;5256;48.728;9.140;2023-06-05T00:52:09;0.40;;;0.40;;
10418;SDS011;5256;48.728;9.140;2023-06-05T00:54:35;0.40;;;0.40;;
10418;SDS011;5256;48.728;9.140;2023-06-05T00:57:00;0.40;;;0.40;;
10418;SDS011;5256;48.728;9.140;2023-06-05T00:59:27;0.40;;;0.40;;
10418;SDS011;5256;48.728;9.140;2023-06-05T01:01:54;0.33;;;0.33;;
10418;SDS011;5256;48.728;9.140;2023-06-05T01:04:20;0.30;;;0.30;;
10418;SDS011;5256;48.728;9.140;2023-06-05T01:06:48;0.30;;;0.30;;
10418;SDS011;5256;48.728;9.140;2023-06-05T01:09:16;0.30;;;0.30;;
10418;SDS011;5256;48.728;9.140;2023-06-05T01:14:57;0.40;;;0.40;;
10418;SDS011;5256;48.728;9.140;2023-06-05T01:17:26;0.40;;;0.40;;
10418;SDS011;5256;48.728;9.140;2023-06-05T01:19:57;0.30;;;0.30;;
10418;SDS011;5256;48.728;9.140;2023-06-05T01:22:35;0.30;;;0.30;;
10418;SDS011;5256;48.728;9.140;2023-06-05T01:25:03;0.30;;;0.30;;
10418;SDS011;5256;48.728;9.140;2023-06-05T01:27:41;0.40;;;0.40;;
10418;SDS011;5256;48.728;9.140;2023-06-05T01:30:27;0.40;;;0.40;;
10418;SDS011;5256;48.728;9.140;2023-06-05T01:33:01;0.30;;;0.30;;
10418;SDS011;5256;48.728;9.140;2023-06-05T01:35:31;0.40;;;0.40;;
10418;SDS011;5256;48.728;9.140;2023-06-05T01:37:59;0.50;;;0.50;;
10418;SDS011;5256;48.728;9.140;2023-06-05T01:40:27;0.50;;;0.50;;
10418;SDS011;5256;48.728;9.140;2023-06-05T01:42:56;0.33;;;0.33;;
10418;SDS011;5256;48.728;9.140;2023-06-05T01:45:23;0.40;;;0.40;;
10418;SDS011;5256;48.728;9.140;2023-06-05T01:47:48;0.40;;;0.40;;
10418;SDS011;5256;48.728;9.140;2023-06-05T01:50:15;0.43;;;0.43;;
10418;SDS011;5256;48.728;9.140;2023-06-05T01:52:41;0.47;;;0.47;;
10418;SDS011;5256;48.728;9.140;2023-06-05T01:55:13;0.40;;;0.40;;
10418;SDS011;5256;48.728;9.140;2023-06-05T01:57:45;0.40;;;0.40;;
10418;SDS011;5256;48.728;9.140;2023-06-05T02:00:11;0.40;;;0.40;;
10418;SDS011;5256;48.728;9.140;2023-06-05T02:02:41;0.40;;;0.40;;
10418;SDS011;5256;48.728;9.140;2023-06-05T02:05:08;0.30;;;0.30;;
10418;SDS011;5256;48.728;9.140;2023-06-05T02:07:35;0.50;;;0.50;;
10418;SDS011;5256;48.728;9.140;2023-06-05T02:10:03;0.53;;;0.53;;
10418;SDS011;5256;48.728;9.140;2023-06-05T02:12:30;0.50;;;0.50;;
10418;SDS011;5256;48.728;9.140;2023-06-05T02:14:57;0.30;;;0.30;;
10418;SDS011;5256;48.728;9.140;2023-06-05T02:17:24;0.40;;;0.40;;
10418;SDS011;5256;48.728;9.140;2023-06-05T02:19:50;0.40;;;0.40;;
10418;SDS011;5256;48.728;9.140;2023-06-05T02:22:16;0.50;;;0.50;;
10418;SDS011;5256;48.728;9.140;2023-06-05T02:24:41;0.60;;;0.60;;
10418;SDS011;5256;48.728;9.140;2023-06-05T02:27:07;0.40;;;0.40;;
10418;SDS011;5256;48.728;9.140;2023-06-05T02:29:35;0.50;;;0.50;;
10418;SDS011;5256;48.728;9.140;2023-06-05T02:32:03;0.30;;;0.30;;
10418;SDS011;5256;48.728;9.140;2023-06-05T02:34:30;0.53;;;0.53;;
10418;SDS011;5256;48.728;9.140;2023-06-05T02:36:58;0.50;;;0.50;;
10418;SDS011;5256;48.728;9.140;2023-06-05T02:39:24;0.40;;;0.40;;
10418;SDS011;5256;48.728;9.140;2023-06-05T02:41:50;0.40;;;0.40;;
10418;SDS011;5256;48.728;9.140;2023-06-05T02:44:16;0.50;;;0.50;;
10418;SDS011;5256;48.728;9.140;2023-06-05T02:46:42;0.50;;;0.50;;
10418;SDS011;5256;48.728;9.140;2023-06-05T02:49:07;0.40;;;0.40;;
10418;SDS011;5256;48.728;9.140;2023-06-05T02:51:33;0.57;;;0.57;;
10418;SDS011;5256;48.728;9.140;2023-06-05T02:53:58;0.47;;;0.47;;
10418;SDS011;5256;48.728;9.140;2023-06-05T02:56:24;0.40;;;0.40;;
10418;SDS011;5256;48.728;9.140;2023-06-05T02:58:52;0.50;;;0.50;;
10418;SDS011;5256;48.728;9.140;2023-06-05T03:01:18;0.40;;;0.40;;
10418;SDS011;5256;48.728;9.140;2023-06-05T03:03:44;0.50;;;0.50;;
10418;SDS011;5256;48.728;9.140;2023-06-05T03:06:09;0.40;;;0.40;;
10418;SDS011;5256;48.728;9.140;2023-06-05T03:08:37;0.47;;;0.47;;
10418;SDS011;5256;48.728;9.140;2023-06-05T03:11:03;0.40;;;0.40;;
10418;SDS011;5256;48.728;9.140;2023-06-05T03:13:29;0.40;;;0.40;;
10418;SDS011;5256;48.728;9.140;2023-06-05T03:15:56;0.40;;;0.40;;
10418;SDS011;5256;48.728;9.140;2023-06-05T03:18:25;0.50;;;0.50;;
10418;SDS011;5256;48.728;9.140;2023-06-05T03:20:53;0.40;;;0.40;;
10418;SDS011;5256;48.728;9.140;2023-06-05T03:23:23;0.40;;;0.40;;
10418;SDS011;5256;48.728;9.140;2023-06-05T03:25:50;0.47;;;0.47;;
10418;SDS011;5256;48.728;9.140;2023-06-05T03:28:16;0.40;;;0.40;;
10418;SDS011;5256;48.728;9.140;2023-06-05T03:30:42;0.33;;;0.33;;
10418;SDS011;5256;48.728;9.140;2023-06-05T03:33:09;0.50;;;0.50;;
10418;SDS011;5256;48.728;9.140;2023-06-05T03:35:34;0.40;;;0.40;;
10418;SDS011;5256;48.728;9.140;2023-06-05T03:38:00;0.40;;;0.40;;
10418;SDS011;5256;48.728;9.140;2023-06-05T03:40:26;0.50;;;0.50;;
10418;SDS011;5256;48.728;9.140;2023-06-05T03:42:52;0.53;;;0.53;;
10418;SDS011;5256;48.728;9.140;2023-06-05T03:45:17;0.30;;;0.30;;
10418;SDS011;5256;48.728;9.140;2023-06-05T03:47:43;0.40;;;0.40;;
10418;SDS011;5256;48.728;9.140;2023-06-05T03:50:11;0.50;;;0.50;;
10418;SDS011;5256;48.728;9.140;2023-06-05T03:52:37;0.53;;;0.53;;
10418;SDS011;5256;48.728;9.140;2023-06-05T03:55:04;0.40;;;0.40;;
10418;SDS011;5256;48.728;9.140;2023-06-05T03:57:32;0.30;;;0.30;;
10418;SDS011;5256;48.728;9.140;2023-06-05T03:59:58;0.50;;;0.50;;
10418;SDS011;5256;48.728;9.140;2023-06-05T04:02:24;0.60;;;0.60;;
10418;SDS011;5256;48.728;9.140;2023-06-05T04:04:50;0.47;;;0.47;;
10418;SDS011;5256;48.728;9.140;2023-06-05T04:07:16;0.60;;;0.60;;
10418;SDS011;5256;48.728;9.140;2023-06-05T04:09:42;0.40;;;0.40;;
10418;SDS011;5256;48.728;9.140;2023-06-05T04:12:07;0.30;;;0.30;;
10418;SDS011;5256;48.728;9.140;2023-06-05T04:14:35;0.40;;;0.40;;
10418;SDS011;5256;48.728;9.140;2023-06-05T04:17:01;0.40;;;0.40;;
10418;SDS011;5256;48.728;9.140;2023-06-05T04:19:27;0.30;;;0.30;;
10418;SDS011;5256;48.728;9.140;2023-06-05T04:21:53;0.40;;;0.40;;
10418;SDS011;5256;48.728;9.140;2023-06-05T04:24:19;0.40;;;0.40;;
10418;SDS011;5256;48.728;9.140;2023-06-05T04:26:45;0.30;;;0.30;;
10418;SDS011;5256;48.728;9.140;2023-06-05T04:29:12;0.37;;;0.37;;
10418;SDS011;5256;48.728;9.140;2023-06-05T04:31:43;0.40;;;0.40;;
10418;SDS011;5256;48.728;9.140;2023-06-05T04:34:11;0.30;;;0.30;;
10418;SDS011;5256;48.728;9.140;2023-06-05T04:36:37;0.30;;;0.30;;
10418;SDS011;5256;48.728;9.140;2023-06-05T04:39:03;0.30;;;0.30;;
10418;SDS011;5256;48.728;9.140;2023-06-05T04:41:31;0.30;;;0.30;;
10418;SDS011;5256;48.728;9.140;2023-06-05T04:43:57;0.30;;;0.30;;
10418;SDS011;5256;48.728;9.140;2023-06-05T04:46:24;0.30;;;0.30;;
10418;SDS011;5256;48.728;9.140;2023-06-05T04:48:51;0.30;;;0.30;;
10418;SDS011;5256;48.728;9.140;2023-06-05T04:51:20;0.20;;;0.20;;
10418;SDS011;5256;48.728;9.140;2023-06-05T04:53:46;0.23;;;0.23;;
10418;SDS011;5256;48.728;9.140;2023-06-05T04:56:15;0.30;;;0.30;;
10418;SDS011;5256;48.728;9.140;2023-06-05T04:58:41;0.30;;;0.30;;
10418;SDS011;5256;48.728;9.140;2023-06-05T05:01:07;0.27;;;0.27;;
10418;SDS011;5256;48.728;9.140;2023-06-05T05:03:33;0.30;;;0.30;;
10418;SDS011;5256;48.728;9.140;2023-06-05T05:06:00;0.37;;;0.37;;
10418;SDS011;5256;48.728;9.140;2023-06-05T05:08:26;0.20;;;0.20;;
10418;SDS011;5256;48.728;9.140;2023-06-05T05:10:52;0.20;;;0.20;;
10418;SDS011;5256;48.728;9.140;2023-06-05T05:13:18;0.20;;;0.20;;
10418;SDS011;5256;48.728;9.140;2023-06-05T05:15:44;0.20;;;0.20;;
10418;SDS011;5256;48.728;9.140;2023-06-05T05:18:11;0.20;;;0.20;;
10418;SDS011;5256;48.728;9.140;2023-06-05T05:20:37;0.20;;;0.20;;
10418;SDS011;5256;48.728;9.140;2023-06-05T05:23:03;0.20;;;0.20;;
10418;SDS011;5256;48.728;9.140;2023-06-05T05:25:29;0.20;;;0.20;;
10418;SDS011;5256;48.728;9.140;2023-06-05T05:27:55;0.30;;;0.30;;
10418;SDS011;5256;48.728;9.140;2023-06-05T05:30:20;0.30;;;0.30;;
10418;SDS011;5256;48.728;9.140;2023-06-05T05:32:46;0.20;;;0.20;;
10418;SDS011;5256;48.728;9.140;2023-06-05T05:35:11;0.27;;;0.27;;
10418;SDS011;5256;48.728;9.140;2023-06-05T05:37:37;0.20;;;0.20;;
10418;SDS011;5256;48.728;9.140;2023-06-05T05:40:03;0.20;;;0.20;;
10418;SDS011;5256;48.728;9.140;2023-06-05T05:42:30;0.20;;;0.20;;
10418;SDS011;5256;48.728;9.140;2023-06-05T05:44:55;0.20;;;0.20;;
10418;SDS011;5256;48.728;9.140;2023-06-05T05:47:21;0.20;;;0.20;;
10418;SDS011;5256;48.728;9.140;2023-06-05T05:49:46;0.10;;;0.10;;
10418;SDS011;5256;48.728;9.140;2023-06-05T05:52:12;0.20;;;0.20;;
10418;SDS011;5256;48.728;9.140;2023-06-05T05:54:37;0.30;;;0.30;;
10418;SDS011;5256;48.728;9.140;2023-06-05T05:57:03;0.20;;;0.20;;
10418;SDS011;5256;48.728;9.140;2023-06-05T05:59:29;0.10;;;0.10;;
10418;SDS011;5256;48.728;9.140;2023-06-05T06:01:55;0.20;;;0.20;;
10418;SDS011;5256;48.728;9.140;2023-06-05T06:04:23;0.20;;;0.20;;
10418;SDS011;5256;48.728;9.140;2023-06-05T06:06:49;0.20;;;0.20;;
10418;SDS011;5256;48.728;9.140;2023-06-05T06:09:17;0.20;;;0.20;;
10418;SDS011;5256;48.728;9.140;2023-06-05T06:11:43;0.20;;;0.20;;
10418;SDS011;5256;48.728;9.140;2023-06-05T06:14:09;0.30;;;0.30;;
10418;SDS011;5256;48.728;9.140;2023-06-05T06:16:36;0.30;;;0.30;;
10418;SDS011;5256;48.728;9.140;2023-06-05T06:19:02;0.27;;;0.27;;
10418;SDS011;5256;48.728;9.140;2023-06-05T06:21:29;0.20;;;0.20;;
10418;SDS011;5256;48.728;9.140;2023-06-05T06:23:55;0.20;;;0.20;;
10418;SDS011;5256;48.728;9.140;2023-06-05T06:26:20;0.20;;;0.20;;
10418;SDS011;5256;48.728;9.140;2023-06-05T06:28:46;0.30;;;0.30;;
10418;SDS011;5256;48.728;9.140;2023-06-05T06:31:12;0.20;;;0.20;;
10418;SDS011;5256;48.728;9.140;2023-06-05T06:33:38;0.30;;;0.30;;
10418;SDS011;5256;48.728;9.140;2023-06-05T06:36:04;0.30;;;0.30;;
10418;SDS011;5256;48.728;9.140;2023-06-05T06:38:29;0.20;;;0.20;;
10418;SDS011;5256;48.728;9.140;2023-06-05T06:40:56;0.30;;;0.30;;
10418;SDS011;5256;48.728;9.140;2023-06-05T06:43:22;0.13;;;0.13;;
10418;SDS011;5256;48.728;9.140;2023-06-05T06:45:48;0.20;;;0.20;;
10418;SDS011;5256;48.728;9.140;2023-06-05T06:48:15;0.20;;;0.20;;
10418;SDS011;5256;48.728;9.140;2023-06-05T06:50:45;0.30;;;0.30;;
10418;SDS011;5256;48.728;9.140;2023-06-05T06:53:10;0.20;;;0.20;;
10418;SDS011;5256;48.728;9.140;2023-06-05T06:55:36;0.20;;;0.20;;
10418;SDS011;5256;48.728;9.140;2023-06-05T06:58:03;0.20;;;0.20;;
10418;SDS011;5256;48.728;9.140;2023-06-05T07:00:29;0.20;;;0.20;;
10418;SDS011;5256;48.728;9.140;2023-06-05T07:02:54;0.20;;;0.20;;
10418;SDS011;5256;48.728;9.140;2023-06-05T07:05:20;0.20;;;0.20;;
10418;SDS011;5256;48.728;9.140;2023-06-05T07:07:45;0.20;;;0.20;;
10418;SDS011;5256;48.728;9.140;2023-06-05T07:10:11;0.20;;;0.20;;
10418;SDS011;5256;48.728;9.140;2023-06-05T07:12:37;0.20;;;0.20;;
10418;SDS011;5256;48.728;9.140;2023-06-05T07:15:03;0.20;;;0.20;;
10418;SDS011;5256;48.728;9.140;2023-06-05T07:17:29;0.20;;;0.20;;
10418;SDS011;5256;48.728;9.140;2023-06-05T07:19:55;0.20;;;0.20;;
10418;SDS011;5256;48.728;9.140;2023-06-05T07:22:22;0.20;;;0.20;;
10418;SDS011;5256;48.728;9.140;2023-06-05T07:24:49;0.20;;;0.20;;
10418;SDS011;5256;48.728;9.140;2023-06-05T07:27:15;0.20;;;0.20;;
10418;SDS011;5256;48.728;9.140;2023-06-05T07:29:41;0.20;;;0.20;;
10418;SDS011;5256;48.728;9.140;2023-06-05T07:32:06;0.13;;;0.13;;
10418;SDS011;5256;48.728;9.140;2023-06-05T07:34:32;0.10;;;0.10;;
10418;SDS011;5256;48.728;9.140;2023-06-05T07:36:59;0.13;;;0.13;;
10418;SDS011;5256;48.728;9.140;2023-06-05T07:39:25;0.20;;;0.20;;
10418;SDS011;5256;48.728;9.140;2023-06-05T07:41:51;0.20;;;0.20;;
10418;SDS011;5256;48.728;9.140;2023-06-05T07:44:18;0.30;;;0.30;;
10418;SDS011;5256;48.728;9.140;2023-06-05T07:46:44;0.30;;;0.30;;
10418;SDS011;5256;48.728;9.140;2023-06-05T07:49:11;0.10;;;0.10;;
10418;SDS011;5256;48.728;9.140;2023-06-05T07:51:37;0.20;;;0.20;;
10418;SDS011;5256;48.728;9.140;2023-06-05T07:54:04;0.10;;;0.10;;
10418;SDS011;5256;48.728;9.140;2023-06-05T07:56:30;0.17;;;0.17;;
10418;SDS011;5256;48.728;9.140;2023-06-05T07:58:57;0.10;;;0.10;;
10418;SDS011;5256;48.728;9.140;2023-06-05T08:01:22;0.10;;;0.10;;
10418;SDS011;5256;48.728;9.140;2023-06-05T08:03:48;0.13;;;0.13;;
10418;SDS011;5256;48.728;9.140;2023-06-05T08:06:14;0.20;;;0.20;;
10418;SDS011;5256;48.728;9.140;2023-06-05T08:08:40;0.10;;;0.10;;
10418;SDS011;5256;48.728;9.140;2023-06-05T08:11:07;0.20;;;0.20;;
10418;SDS011;5256;48.728;9.140;2023-06-05T08:13:32;0.20;;;0.20;;
10418;SDS011;5256;48.728;9.140;2023-06-05T08:15:58;0.10;;;0.10;;
10418;SDS011;5256;48.728;9.140;2023-06-05T08:18:23;0.20;;;0.20;;
10418;SDS011;5256;48.728;9.140;2023-06-05T08:20:49;0.20;;;0.20;;
10418;SDS011;5256;48.728;9.140;2023-06-05T08:23:15;0.10;;;0.10;;
10418;SDS011;5256;48.728;9.140;2023-06-05T08:25:41;0.10;;;0.10;;
10418;SDS011;5256;48.728;9.140;2023-06-05T08:28:07;0.10;;;0.10;;
10418;SDS011;5256;48.728;9.140;2023-06-05T08:30:33;0.10;;;0.10;;
10418;SDS011;5256;48.728;9.140;2023-06-05T08:32:58;0.10;;;0.10;;
10418;SDS011;5256;48.728;9.140;2023-06-05T08:35:24;0.20;;;0.20;;
10418;SDS011;5256;48.728;9.140;2023-06-05T08:37:49;0.10;;;0.10;;
10418;SDS011;5256;48.728;9.140;2023-06-05T08:40:15;0.20;;;0.20;;
10418;SDS011;5256;48.728;9.140;2023-06-05T08:42:43;0.10;;;0.10;;
10418;SDS011;5256;48.728;9.140;2023-06-05T08:45:09;0.10;;;0.10;;
10418;SDS011;5256;48.728;9.140;2023-06-05T08:47:35;0.10;;;0.10;;
10418;SDS011;5256;48.728;9.140;2023-06-05T08:50:04;0.20;;;0.20;;
10418;SDS011;5256;48.728;9.140;2023-06-05T08:52:34;0.20;;;0.20;;
10418;SDS011;5256;48.728;9.140;2023-06-05T08:55:04;0.10;;;0.10;;
10418;SDS011;5256;48.728;9.140;2023-06-05T08:57:38;0.20;;;0.20;;
10418;SDS011;5256;48.728;9.140;2023-06-05T09:00:05;0.10;;;0.10;;
10418;SDS011;5256;48.728;9.140;2023-06-05T09:02:42;0.13;;;0.13;;
10418;SDS011;5256;48.728;9.140;2023-06-05T09:05:14;0.17;;;0.17;;
10418;SDS011;5256;48.728;9.140;2023-06-05T09:07:40;0.20;;;0.20;;
10418;SDS011;5256;48.728;9.140;2023-06-05T09:10:06;0.20;;;0.20;;
10418;SDS011;5256;48.728;9.140;2023-06-05T09:12:52;0.10;;;0.10;;
10418;SDS011;5256;48.728;9.140;2023-06-05T09:15:29;0.20;;;0.20;;
10418;SDS011;5256;48.728;9.140;2023-06-05T09:18:05;0.13;;;0.13;;
10418;SDS011;5256;48.728;9.140;2023-06-05T09:20:39;0.20;;;0.20;;
10418;SDS011;5256;48.728;9.140;2023-06-05T09:23:20;0.20;;;0.20;;
10418;SDS011;5256;48.728;9.140;2023-06-05T09:25:49;0.10;;;0.10;;
10418;SDS011;5256;48.728;9.140;2023-06-05T09:28:15;0.10;;;0.10;;
10418;SDS011;5256;48.728;9.140;2023-06-05T09:30:54;0.20;;;0.20;;
10418;SDS011;5256;48.728;9.140;2023-06-05T09:33:21;0.10;;;0.10;;
10418;SDS011;5256;48.728;9.140;2023-06-05T09:36:00;0.10;;;0.10;;
10418;SDS011;5256;48.728;9.140;2023-06-05T09:38:33;0.10;;;0.10;;
10418;SDS011;5256;48.728;9.140;2023-06-05T09:43:33;0.20;;;0.20;;
10418;SDS011;5256;48.728;9.140;2023-06-05T09:46:05;0.10;;;0.10;;
10418;SDS011;5256;48.728;9.140;2023-06-05T09:48:35;0.10;;;0.10;;
10418;SDS011;5256;48.728;9.140;2023-06-05T09:51:22;0.20;;;0.20;;
10418;SDS011;5256;48.728;9.140;2023-06-05T09:53:48;0.20;;;0.20;;
10418;SDS011;5256;48.728;9.140;2023-06-05T09:56:15;0.10;;;0.10;;
10418;SDS011;5256;48.728;9.140;2023-06-05T09:58:46;0.10;;;0.10;;
10418;SDS011;5256;48.728;9.140;2023-06-05T10:01:16;0.10;;;0.10;;
10418;SDS011;5256;48.728;9.140;2023-06-05T10:04:29;0.10;;;0.10;;
10418;SDS011;5256;48.728;9.140;2023-06-05T10:06:34;0.20;;;0.20;;
10418;SDS011;5256;48.728;9.140;2023-06-05T10:09:01;0.10;;;0.10;;
10418;SDS011;5256;48.728;9.140;2023-06-05T10:11:28;0.10;;;0.10;;
10418;SDS011;5256;48.728;9.140;2023-06-05T10:13:54;0.20;;;0.20;;
10418;SDS011;5256;48.728;9.140;2023-06-05T10:16:25;0.10;;;0.10;;
10418;SDS011;5256;48.728;9.140;2023-06-05T10:18:54;0.10;;;0.10;;
10418;SDS011;5256;48.728;9.140;2023-06-05T10:21:24;0.20;;;0.20;;
10418;SDS011;5256;48.728;9.140;2023-06-05T10:32:17;0.10;;;0.10;;
10418;SDS011;5256;48.728;9.140;2023-06-05T10:34:56;0.20;;;0.20;;
10418;SDS011;5256;48.728;9.140;2023-06-05T10:40:21;0.20;;;0.20;;
10418;SDS011;5256;48.728;9.140;2023-06-05T10:42:49;0.10;;;0.10;;
10418;SDS011;5256;48.728;9.140;2023-06-05T10:45:29;0.10;;;0.10;;
10418;SDS011;5256;48.728;9.140;2023-06-05T10:47:56;0.20;;;0.20;;
10418;SDS011;5256;48.728;9.140;2023-06-05T10:50:22;0.20;;;0.20;;
10418;SDS011;5256;48.728;9.140;2023-06-05T10:52:50;0.10;;;0.10;;
10418;SDS011;5256;48.728;9.140;2023-06-05T10:55:17;0.20;;;0.20;;
10418;SDS011;5256;48.728;9.140;2023-06-05T11:00:28;0.20;;;0.20;;
10418;SDS011;5256;48.728;9.140;2023-06-05T11:02:54;0.20;;;0.20;;
10418;SDS011;5256;48.728;9.140;2023-06-05T11:05:20;0.20;;;0.20;;
10418;SDS011;5256;48.728;9.140;2023-06-05T11:07:47;0.20;;;0.20;;
10418;SDS011;5256;48.728;9.140;2023-06-05T11:15:07;0.20;;;0.20;;
10418;SDS011;5256;48.728;9.140;2023-06-05T11:17:34;0.10;;;0.10;;
10418;SDS011;5256;48.728;9.140;2023-06-05T11:20:02;0.20;;;0.20;;
10418;SDS011;5256;48.728;9.140;2023-06-05T11:30:26;0.10;;;0.10;;
10418;SDS011;5256;48.728;9.140;2023-06-05T11:32:56;0.10;;;0.10;;
10418;SDS011;5256;48.728;9.140;2023-06-05T11:35:30;0.13;;;0.13;;
10418;SDS011;5256;48.728;9.140;2023-06-05T11:38:13;0.20;;;0.20;;
10418;SDS011;5256;48.728;9.140;2023-06-05T11:40:40;0.10;;;0.10;;
10418;SDS011;5256;48.728;9.140;2023-06-05T11:43:08;0.10;;;0.10;;
10418;SDS011;5256;48.728;9.140;2023-06-05T11:45:36;0.30;;;0.30;;
10418;SDS011;5256;48.728;9.140;2023-06-05T11:48:03;0.13;;;0.13;;
10418;SDS011;5256;48.728;9.140;2023-06-05T11:50:30;0.20;;;0.20;;
10418;SDS011;5256;48.728;9.140;2023-06-05T11:53:05;0.20;;;0.20;;
10418;SDS011;5256;48.728;9.140;2023-06-05T11:55:35;0.20;;;0.20;;
10418;SDS011;5256;48.728;9.140;2023-06-05T11:58:22;0.10;;;0.10;;
10418;SDS011;5256;48.728;9.140;2023-06-05T12:01:14;0.20;;;0.20;;
10418;SDS011;5256;48.728;9.140;2023-06-05T12:03:47;0.13;;;0.13;;
10418;SDS011;5256;48.728;9.140;2023-06-05T12:06:14;0.20;;;0.20;;
10418;SDS011;5256;48.728;9.140;2023-06-05T12:08:41;0.10;;;0.10;;
10418;SDS011;5256;48.728;9.140;2023-06-05T12:11:21;0.10;;;0.10;;
10418;SDS011;5256;48.728;9.140;2023-06-05T12:13:51;0.20;;;0.20;;
10418;SDS011;5256;48.728;9.140;2023-06-05T12:16:18;0.20;;;0.20;;
10418;SDS011;5256;48.728;9.140;2023-06-05T12:18:45;0.20;;;0.20;;
10418;SDS011;5256;48.728;9.140;2023-06-05T12:21:22;0.10;;;0.10;;
10418;SDS011;5256;48.728;9.140;2023-06-05T12:23:48;0.20;;;0.20;;
10418;SDS011;5256;48.728;9.140;2023-06-05T12:26:14;0.20;;;0.20;;
10418;SDS011;5256;48.728;9.140;2023-06-05T12:28:41;0.10;;;0.10;;
10418;SDS011;5256;48.728;9.140;2023-06-05T12:31:08;0.20;;;0.20;;
10418;SDS011;5256;48.728;9.140;2023-06-05T12:33:33;0.20;;;0.20;;
10418;SDS011;5256;48.728;9.140;2023-06-05T12:36:13;0.20;;;0.20;;
10418;SDS011;5256;48.728;9.140;2023-06-05T12:38:39;0.10;;;0.10;;
10418;SDS011;5256;48.728;9.140;2023-06-05T12:41:09;0.10;;;0.10;;
10418;SDS011;5256;48.728;9.140;2023-06-05T12:43:35;0.10;;;0.10;;
10418;SDS011;5256;48.728;9.140;2023-06-05T12:46:01;0.13;;;0.13;;
10418;SDS011;5256;48.728;9.140;2023-06-05T12:48:27;0.20;;;0.20;;
10418;SDS011;5256;48.728;9.140;2023-06-05T12:50:53;0.20;;;0.20;;
10418;SDS011;5256;48.728;9.140;2023-06-05T12:53:21;0.20;;;0.20;;
10418;SDS011;5256;48.728;9.140;2023-06-05T12:55:47;0.20;;;0.20;;
10418;SDS011;5256;48.728;9.140;2023-06-05T12:58:13;0.20;;;0.20;;
10418;SDS011;5256;48.728;9.140;2023-06-05T13:00:39;0.20;;;0.20;;
10418;SDS011;5256;48.728;9.140;2023-06-05T13:03:05;0.10;;;0.10;;
10418;SDS011;5256;48.728;9.140;2023-06-05T13:05:31;0.20;;;0.20;;
10418;SDS011;5256;48.728;9.140;2023-06-05T13:07:57;0.10;;;0.10;;
10418;SDS011;5256;48.728;9.140;2023-06-05T13:10:23;0.20;;;0.20;;
10418;SDS011;5256;48.728;9.140;2023-06-05T13:12:48;0.10;;;0.10;;
10418;SDS011;5256;48.728;9.140;2023-06-05T13:15:14;0.10;;;0.10;;
10418;SDS011;5256;48.728;9.140;2023-06-05T13:17:39;0.10;;;0.10;;
10418;SDS011;5256;48.728;9.140;2023-06-05T13:20:05;0.10;;;0.10;;
10418;SDS011;5256;48.728;9.140;2023-06-05T13:22:32;0.20;;;0.20;;
10418;SDS011;5256;48.728;9.140;2023-06-05T13:24:57;0.20;;;0.20;;
10418;SDS011;5256;48.728;9.140;2023-06-05T13:27:23;0.20;;;0.20;;
10418;SDS011;5256;48.728;9.140;2023-06-05T13:29:48;0.17;;;0.17;;
10418;SDS011;5256;48.728;9.140;2023-06-05T13:32:14;0.10;;;0.10;;
10418;SDS011;5256;48.728;9.140;2023-06-05T13:34:40;0.20;;;0.20;;
10418;SDS011;5256;48.728;9.140;2023-06-05T13:37:05;0.20;;;0.20;;
10418;SDS011;5256;48.728;9.140;2023-06-05T13:39:31;0.10;;;0.10;;
10418;SDS011;5256;48.728;9.140;2023-06-05T13:41:56;0.10;;;0.10;;
10418;SDS011;5256;48.728;9.140;2023-06-05T13:44:22;0.10;;;0.10;;
10418;SDS011;5256;48.728;9.140;2023-06-05T13:46:47;0.20;;;0.20;;
10418;SDS011;5256;48.728;9.140;2023-06-05T13:49:13;0.10;;;0.10;;
10418;SDS011;5256;48.728;9.140;2023-06-05T13:51:40;0.20;;;0.20;;
10418;SDS011;5256;48.728;9.140;2023-06-05T13:54:06;0.10;;;0.10;;
10418;SDS011;5256;48.728;9.140;2023-06-05T13:56:32;0.10;;;0.10;;
10418;SDS011;5256;48.728;9.140;2023-06-05T13:58:57;0.13;;;0.13;;
10418;SDS011;5256;48.728;9.140;2023-06-05T14:01:23;0.10;;;0.10;;
10418;SDS011;5256;48.728;9.140;2023-06-05T14:03:49;0.10;;;0.10;;
10418;SDS011;5256;48.728;9.140;2023-06-05T14:06:16;0.10;;;0.10;;
10418;SDS011;5256;48.728;9.140;2023-06-05T14:08:42;0.10;;;0.10;;
10418;SDS011;5256;48.728;9.140;2023-06-05T14:11:08;0.10;;;0.10;;
10418;SDS011;5256;48.728;9.140;2023-06-05T14:13:34;0.10;;;0.10;;
10418;SDS011;5256;48.728;9.140;2023-06-05T14:16:00;0.10;;;0.10;;
10418;SDS011;5256;48.728;9.140;2023-06-05T14:18:26;0.10;;;0.10;;
10418;SDS011;5256;48.728;9.140;2023-06-05T14:20:52;0.10;;;0.10;;
10418;SDS011;5256;48.728;9.140;2023-06-05T14:23:17;0.00;;;0.00;;
10418;SDS011;5256;48.728;9.140;2023-06-05T14:25:45;0.10;;;0.10;;
10418;SDS011;5256;48.728;9.140;2023-06-05T14:28:10;0.10;;;0.10;;
10418;SDS011;5256;48.728;9.140;2023-06-05T14:30:36;0.10;;;0.10;;
10418;SDS011;5256;48.728;9.140;2023-06-05T14:33:02;0.20;;;0.20;;
10418;SDS011;5256;48.728;9.140;2023-06-05T14:35:27;0.10;;;0.10;;
10418;SDS011;5256;48.728;9.140;2023-06-05T14:37:54;0.10;;;0.10;;
10418;SDS011;5256;48.728;9.140;2023-06-05T14:40:19;0.10;;;0.10;;
10418;SDS011;5256;48.728;9.140;2023-06-05T14:42:45;0.10;;;0.10;;
10418;SDS011;5256;48.728;9.140;2023-06-05T14:45:10;0.10;;;0.10;;
10418;SDS011;5256;48.728;9.140;2023-06-05T14:47:36;0.10;;;0.10;;
10418;SDS011;5256;48.728;9.140;2023-06-05T14:50:02;0.10;;;0.10;;
10418;SDS011;5256;48.728;9.140;2023-06-05T14:52:27;0.10;;;0.10;;
10418;SDS011;5256;48.728;9.140;2023-06-05T14:54:53;0.10;;;0.10;;
10418;SDS011;5256;48.728;9.140;2023-06-05T14:57:19;0.10;;;0.10;;
10418;SDS011;5256;48.728;9.140;2023-06-05T14:59:44;0.10;;;0.10;;
10418;SDS011;5256;48.728;9.140;2023-06-05T15:02:10;0.10;;;0.10;;
10418;SDS011;5256;48.728;9.140;2023-06-05T15:04:35;0.10;;;0.10;;
10418;SDS011;5256;48.728;9.140;2023-06-05T15:07:01;0.10;;;0.10;;
10418;SDS011;5256;48.728;9.140;2023-06-05T15:09:27;0.10;;;0.10;;
10418;SDS011;5256;48.728;9.140;2023-06-05T15:11:53;0.10;;;0.10;;
10418;SDS011;5256;48.728;9.140;2023-06-05T15:14:20;0.10;;;0.10;;
10418;SDS011;5256;48.728;9.140;2023-06-05T15:16:47;0.10;;;0.10;;
10418;SDS011;5256;48.728;9.140;2023-06-05T15:19:12;0.10;;;0.10;;
10418;SDS011;5256;48.728;9.140;2023-06-05T15:21:38;0.10;;;0.10;;
10418;SDS011;5256;48.728;9.140;2023-06-05T15:24:04;0.10;;;0.10;;
10418;SDS011;5256;48.728;9.140;2023-06-05T15:26:30;0.10;;;0.10;;
10418;SDS011;5256;48.728;9.140;2023-06-05T15:28:56;0.20;;;0.20;;
10418;SDS011;5256;48.728;9.140;2023-06-05T15:31:21;0.20;;;0.20;;
10418;SDS011;5256;48.728;9.140;2023-06-05T15:33:47;0.20;;;0.20;;